Time;durP1;ratioP1;P1;durP2;ratioP2;P2;SDS_P1;SDS_P2;PMS_P1;PMS_P2;Temp;Humidity;BMP_temperature;BMP_pressure;BME280_temperature;BME280_humidity;BME280_pressure;Samples;Min_cycle;Max_cycle;Signal;HPM_P1;HPM_P2
2022/03/06 00:02:13;;;;;;;32.50;19.60;;;9.80;52.80;;;;;;5048327;28;20029;-73
2022/03/06 00:04:39;;;;;;;29.00;20.83;;;9.80;52.40;;;;;;5046755;28;20041;-73
2022/03/06 00:07:05;;;;;;;31.80;20.55;;;9.90;53.00;;;;;;5052834;28;20036;-72
2022/03/06 00:09:31;;;;;;;27.63;19.60;;;9.90;52.90;;;;;;5051149;28;20028;-72
2022/03/06 00:11:57;;;;;;;30.17;21.42;;;9.80;52.60;;;;;;5045192;28;20104;-73
2022/03/06 00:14:23;;;;;;;30.10;19.60;;;9.70;52.80;;;;;;5048304;28;20040;-73
2022/03/06 00:16:51;;;;;;;27.98;19.23;;;9.80;52.70;;;;;;5052013;28;20418;-73
2022/03/06 00:19:18;;;;;;;30.80;19.83;;;9.70;52.30;;;;;;5051219;28;20032;-73
2022/03/06 00:21:44;;;;;;;27.90;19.05;;;9.70;52.50;;;;;;5047264;28;20036;-73
2022/03/06 00:24:10;;;;;;;28.40;19.33;;;9.80;52.30;;;;;;5049755;28;20041;-73
2022/03/06 00:26:36;;;;;;;27.60;19.15;;;9.80;52.30;;;;;;5049321;28;20382;-73
2022/03/06 00:29:03;;;;;;;28.10;18.92;;;9.80;52.10;;;;;;5052195;28;20045;-73
2022/03/06 00:31:29;;;;;;;26.50;18.63;;;9.70;52.10;;;;;;5050117;28;20025;-73
2022/03/06 00:33:55;;;;;;;28.08;18.55;;;9.70;51.30;;;;;;5047713;28;20095;-72
2022/03/06 00:36:21;;;;;;;26.65;18.15;;;9.80;51.10;;;;;;5047177;28;20113;-73
2022/03/06 00:38:47;;;;;;;25.83;16.80;;;9.90;51.20;;;;;;5047322;28;20061;-73
2022/03/06 00:41:14;;;;;;;25.90;16.83;;;9.80;51.20;;;;;;5045052;28;20027;-73
2022/03/06 00:43:40;;;;;;;27.77;17.75;;;9.70;51.50;;;;;;5051435;28;20033;-73
2022/03/06 00:46:06;;;;;;;25.95;16.48;;;9.60;52.30;;;;;;5047935;28;20031;-72
2022/03/06 00:48:32;;;;;;;23.48;15.60;;;9.60;52.40;;;;;;5048904;28;20088;-74
2022/03/06 00:50:58;;;;;;;25.05;16.02;;;9.60;52.40;;;;;;5054714;28;20112;-74
2022/03/06 00:53:24;;;;;;;25.17;16.75;;;9.50;53.10;;;;;;5056156;28;20076;-76
2022/03/06 00:55:50;;;;;;;24.90;16.38;;;9.40;52.20;;;;;;5047995;28;20058;-75
2022/03/06 00:58:17;;;;;;;26.50;16.50;;;9.50;52.10;;;;;;5048086;28;20031;-77
2022/03/06 01:00:47;;;;;;;27.05;17.27;;;9.50;52.10;;;;;;5046605;28;20068;-76
2022/03/06 01:03:23;;;;;;;28.85;17.88;;;9.60;51.70;;;;;;5053079;28;20024;-75
2022/03/06 01:05:49;;;;;;;27.80;17.65;;;9.60;53.10;;;;;;5054252;28;20037;-75
2022/03/06 01:08:15;;;;;;;26.73;16.10;;;9.50;52.20;;;;;;5046012;28;20033;-75
2022/03/06 01:10:44;;;;;;;25.25;16.42;;;9.50;51.50;;;;;;5052040;28;20084;-73
2022/03/06 01:13:11;;;;;;;24.35;16.70;;;9.50;52.30;;;;;;5047622;28;20045;-73
2022/03/06 01:15:37;;;;;;;27.10;17.08;;;9.60;51.50;;;;;;5047937;28;20470;-76
2022/03/06 01:18:08;;;;;;;25.13;15.98;;;9.40;52.30;;;;;;5053637;28;20037;-74
2022/03/06 01:20:35;;;;;;;26.13;16.23;;;9.50;51.80;;;;;;5051864;28;20033;-75
2022/03/06 01:23:01;;;;;;;27.50;16.85;;;9.50;52.60;;;;;;5049507;28;20432;-75
2022/03/06 01:25:27;;;;;;;26.40;16.75;;;9.30;52.50;;;;;;5049966;28;20117;-74
2022/03/06 01:27:52;;;;;;;25.05;17.15;;;9.20;52.90;;;;;;5046766;28;20029;-74
2022/03/06 01:30:21;;;;;;;25.48;16.92;;;9.40;52.40;;;;;;5046874;28;20021;-74
2022/03/06 01:32:50;;;;;;;25.75;17.00;;;9.30;53.20;;;;;;5047932;28;20017;-74
2022/03/06 01:35:16;;;;;;;25.75;17.02;;;9.20;54.10;;;;;;5051939;28;20068;-73
2022/03/06 01:37:42;;;;;;;25.42;18.02;;;9.10;53.20;;;;;;5050399;28;20024;-73
2022/03/06 01:40:10;;;;;;;28.25;18.40;;;9.00;54.40;;;;;;5047145;28;20581;-74
2022/03/06 01:42:41;;;;;;;32.53;19.33;;;8.70;55.80;;;;;;5046356;28;20026;-73
2022/03/06 01:45:08;;;;;;;27.98;18.88;;;8.60;57.30;;;;;;5048167;28;20499;-73
2022/03/06 01:47:41;;;;;;;29.58;19.33;;;8.50;56.10;;;;;;5050859;28;20025;-73
2022/03/06 01:50:16;;;;;;;27.70;19.02;;;8.30;56.20;;;;;;5052648;28;20056;-73
2022/03/06 01:52:43;;;;;;;31.05;19.45;;;8.40;57.50;;;;;;5051010;28;20090;-73
2022/03/06 01:55:09;;;;;;;25.27;17.75;;;8.30;57.10;;;;;;5048125;28;22757;-73
2022/03/06 01:57:37;;;;;;;30.38;19.58;;;8.20;57.20;;;;;;5045938;28;20370;-73
2022/03/06 02:00:06;;;;;;;29.52;18.30;;;8.10;57.40;;;;;;5048124;28;20035;-74
2022/03/06 02:02:33;;;;;;;27.75;18.75;;;8.00;57.00;;;;;;5054401;28;20033;-74
2022/03/06 02:05:00;;;;;;;27.02;17.80;;;8.10;57.60;;;;;;5053992;28;20497;-74
2022/03/06 02:07:26;;;;;;;24.98;15.13;;;8.10;58.00;;;;;;5053335;28;20540;-74
2022/03/06 02:09:52;;;;;;;22.90;15.60;;;8.30;56.60;;;;;;5045371;28;20029;-73
2022/03/06 02:12:21;;;;;;;23.92;15.45;;;8.30;56.40;;;;;;5054380;28;20087;-74
2022/03/06 02:14:48;;;;;;;23.80;15.50;;;8.40;55.30;;;;;;5053337;28;20409;-73
2022/03/06 02:17:14;;;;;;;24.88;15.07;;;8.50;54.80;;;;;;5053757;28;20098;-73
2022/03/06 02:19:52;;;;;;;21.92;14.57;;;8.50;54.70;;;;;;5054421;28;20488;-73
2022/03/06 02:22:19;;;;;;;23.27;15.00;;;8.70;54.50;;;;;;5053176;28;20099;-73
2022/03/06 02:24:44;;;;;;;23.83;15.20;;;8.70;55.20;;;;;;5053513;28;20499;-74
2022/03/06 02:27:10;;;;;;;25.23;15.18;;;8.80;55.20;;;;;;5053613;28;20025;-74
2022/03/06 02:29:40;;;;;;;27.17;16.30;;;8.80;54.50;;;;;;5053998;28;20024;-73
2022/03/06 02:32:16;;;;;;;26.58;15.82;;;8.80;55.20;;;;;;5053547;28;20029;-74
2022/03/06 02:34:46;;;;;;;23.77;14.57;;;8.90;54.60;;;;;;5053660;28;20079;-73
2022/03/06 02:37:14;;;;;;;23.02;14.32;;;8.80;54.50;;;;;;5051600;28;20104;-73
2022/03/06 02:39:43;;;;;;;25.10;14.50;;;8.80;54.20;;;;;;5048583;28;20033;-73
2022/03/06 02:42:23;;;;;;;22.80;14.55;;;8.70;54.50;;;;;;5052257;28;20040;-73
2022/03/06 02:44:48;;;;;;;23.80;15.13;;;8.80;54.70;;;;;;5053123;28;20039;-74
2022/03/06 02:47:14;;;;;;;23.55;14.77;;;8.70;54.50;;;;;;5053770;28;20103;-73
2022/03/06 02:49:43;;;;;;;24.73;14.82;;;8.70;54.60;;;;;;5053267;28;20029;-73
2022/03/06 02:52:09;;;;;;;23.88;15.25;;;8.70;54.40;;;;;;5053565;28;20028;-74
2022/03/06 02:54:36;;;;;;;22.38;15.15;;;8.70;55.00;;;;;;5050455;28;20036;-73
2022/03/06 02:57:06;;;;;;;22.77;14.30;;;8.60;55.70;;;;;;5052251;28;20037;-73
2022/03/06 02:59:32;;;;;;;22.63;14.40;;;8.70;55.00;;;;;;5048570;28;20025;-73
2022/03/06 03:01:58;;;;;;;24.83;14.80;;;8.60;55.10;;;;;;5053036;28;20036;-73
2022/03/06 03:04:24;;;;;;;24.30;15.15;;;8.60;55.10;;;;;;5052802;28;20069;-74
2022/03/06 03:06:50;;;;;;;23.13;15.02;;;8.50;55.60;;;;;;5051974;28;20438;-74
2022/03/06 03:09:20;;;;;;;22.33;14.35;;;8.50;55.90;;;;;;5051896;28;20021;-73
2022/03/06 03:11:46;;;;;;;21.15;14.90;;;8.40;56.20;;;;;;5050188;28;20036;-73
2022/03/06 03:14:13;;;;;;;22.67;15.20;;;8.40;56.40;;;;;;5052652;28;20083;-73
2022/03/06 03:16:40;;;;;;;23.67;15.30;;;8.40;55.90;;;;;;5052776;28;20025;-74
2022/03/06 03:19:05;;;;;;;22.27;16.10;;;8.20;57.00;;;;;;5053034;28;20471;-74
2022/03/06 03:21:31;;;;;;;27.20;16.40;;;8.30;55.80;;;;;;5052023;28;20032;-74
2022/03/06 03:23:57;;;;;;;25.58;16.73;;;8.50;55.20;;;;;;5052052;28;20074;-73
2022/03/06 03:26:23;;;;;;;24.30;15.68;;;8.50;56.30;;;;;;5053013;28;20481;-73
2022/03/06 03:28:49;;;;;;;25.10;15.43;;;8.40;56.40;;;;;;5052495;28;20130;-73
2022/03/06 03:31:15;;;;;;;25.95;16.27;;;8.30;55.90;;;;;;5053525;28;20036;-73
2022/03/06 03:33:41;;;;;;;24.70;15.10;;;8.30;56.00;;;;;;5051937;28;20112;-73
2022/03/06 03:36:07;;;;;;;25.38;15.55;;;8.40;55.50;;;;;;5052529;28;20036;-73
2022/03/06 03:38:32;;;;;;;22.92;15.27;;;8.30;55.90;;;;;;5052370;28;20041;-73
2022/03/06 03:40:58;;;;;;;28.17;16.45;;;8.40;55.80;;;;;;5052785;28;20111;-73
2022/03/06 03:43:24;;;;;;;27.65;16.42;;;8.40;56.00;;;;;;5052582;28;20097;-73
2022/03/06 03:45:50;;;;;;;24.75;14.77;;;8.40;56.10;;;;;;5051528;28;20490;-73
2022/03/06 03:48:16;;;;;;;26.08;15.18;;;8.40;55.60;;;;;;5052280;28;20162;-73
2022/03/06 03:50:42;;;;;;;23.48;15.80;;;8.40;56.40;;;;;;5052336;28;20111;-74
2022/03/06 03:53:07;;;;;;;25.88;15.95;;;8.40;55.80;;;;;;5049807;28;20037;-73
2022/03/06 03:55:33;;;;;;;25.05;16.35;;;8.30;56.00;;;;;;5051659;28;20041;-73
2022/03/06 03:57:59;;;;;;;25.65;16.27;;;8.30;55.70;;;;;;5048253;28;20025;-73
2022/03/06 04:00:25;;;;;;;25.13;15.68;;;8.30;56.50;;;;;;5046187;28;20029;-74
2022/03/06 04:02:50;;;;;;;27.27;16.42;;;8.00;57.50;;;;;;5048098;28;20033;-73
2022/03/06 04:05:16;;;;;;;26.13;16.52;;;8.10;57.80;;;;;;5044412;28;20091;-73
2022/03/06 04:07:42;;;;;;;24.75;15.70;;;7.90;57.40;;;;;;5047768;28;20025;-73
2022/03/06 04:10:08;;;;;;;24.83;15.77;;;8.00;57.50;;;;;;5052260;28;20032;-73
2022/03/06 04:12:33;;;;;;;26.30;16.38;;;8.00;58.10;;;;;;5045310;28;20032;-73
2022/03/06 04:14:59;;;;;;;25.60;16.33;;;8.10;56.80;;;;;;5046632;28;20052;-73
2022/03/06 04:17:25;;;;;;;26.90;17.10;;;8.10;56.50;;;;;;5044228;28;20049;-73
2022/03/06 04:19:51;;;;;;;27.30;16.25;;;8.10;57.10;;;;;;5047981;28;20540;-74
2022/03/06 04:22:16;;;;;;;26.98;17.55;;;8.10;57.60;;;;;;5045209;28;20476;-74
2022/03/06 04:24:42;;;;;;;27.50;16.85;;;8.10;57.90;;;;;;5044365;28;20389;-73
2022/03/06 04:27:08;;;;;;;26.67;16.80;;;8.00;57.70;;;;;;5047813;28;20378;-73
2022/03/06 04:29:34;;;;;;;24.75;16.27;;;8.00;57.90;;;;;;5044009;28;20461;-73
2022/03/06 04:31:59;;;;;;;27.38;17.10;;;7.90;57.90;;;;;;5047083;28;20029;-73
2022/03/06 04:34:25;;;;;;;26.73;16.00;;;8.00;57.50;;;;;;5046409;28;20107;-73
2022/03/06 04:36:51;;;;;;;25.13;16.10;;;7.80;58.10;;;;;;5042110;28;20395;-73
2022/03/06 04:39:17;;;;;;;28.40;16.23;;;7.80;58.40;;;;;;5047664;28;20036;-73
2022/03/06 04:41:42;;;;;;;27.63;16.38;;;7.90;57.70;;;;;;5045960;28;20036;-73
2022/03/06 04:44:08;;;;;;;28.35;17.52;;;7.90;58.30;;;;;;5049989;28;20037;-73
2022/03/06 04:46:34;;;;;;;24.77;15.65;;;7.80;58.70;;;;;;5050006;28;20037;-73
2022/03/06 04:49:00;;;;;;;28.23;17.00;;;7.60;59.00;;;;;;5046640;28;20523;-73
2022/03/06 04:51:26;;;;;;;26.33;17.10;;;7.70;58.90;;;;;;5048278;28;20033;-73
2022/03/06 04:53:51;;;;;;;24.60;16.10;;;7.50;58.60;;;;;;5046848;28;20029;-73
2022/03/06 04:56:17;;;;;;;27.70;17.67;;;7.40;59.30;;;;;;5047766;28;20045;-73
2022/03/06 04:58:43;;;;;;;26.08;16.52;;;7.50;59.50;;;;;;5050774;28;20036;-74
2022/03/06 05:01:09;;;;;;;31.20;16.20;;;7.70;58.30;;;;;;5046813;28;20099;-74
2022/03/06 05:03:34;;;;;;;28.27;15.85;;;7.70;58.20;;;;;;5047216;28;20449;-73
2022/03/06 05:06:00;;;;;;;23.63;15.63;;;7.50;59.00;;;;;;5050073;28;20090;-73
2022/03/06 05:08:27;;;;;;;25.52;16.77;;;7.50;59.30;;;;;;5054522;28;20039;-73
2022/03/06 05:10:54;;;;;;;27.98;17.00;;;7.30;59.30;;;;;;5053003;28;20041;-73
2022/03/06 05:13:22;;;;;;;28.58;16.98;;;7.20;59.80;;;;;;5051166;28;20051;-73
2022/03/06 05:15:48;;;;;;;23.75;15.50;;;7.20;60.10;;;;;;5048599;28;20083;-73
2022/03/06 05:18:14;;;;;;;28.20;17.25;;;7.20;60.10;;;;;;5050006;28;20025;-73
2022/03/06 05:20:44;;;;;;;25.85;15.60;;;7.30;60.30;;;;;;5047475;28;20033;-73
2022/03/06 05:23:12;;;;;;;26.00;15.68;;;7.40;59.40;;;;;;5049424;28;20030;-74
2022/03/06 05:25:38;;;;;;;25.60;16.60;;;7.30;59.90;;;;;;5049735;28;20041;-73
2022/03/06 05:28:03;;;;;;;27.23;17.08;;;7.20;60.50;;;;;;5046787;28;20659;-73
2022/03/06 05:30:30;;;;;;;24.52;16.00;;;7.20;60.20;;;;;;5049809;28;20021;-73
2022/03/06 05:32:57;;;;;;;25.35;16.00;;;7.20;60.30;;;;;;5047822;28;20116;-73
2022/03/06 05:35:22;;;;;;;24.92;16.05;;;7.20;60.50;;;;;;5047326;28;20041;-73
2022/03/06 05:37:48;;;;;;;27.40;15.68;;;7.30;60.40;;;;;;5052048;28;20025;-73
2022/03/06 05:40:14;;;;;;;24.27;16.15;;;7.20;60.10;;;;;;5047301;28;20488;-73
2022/03/06 05:42:43;;;;;;;25.63;16.23;;;7.20;60.40;;;;;;5050581;28;20404;-72
2022/03/06 05:45:09;;;;;;;24.65;16.60;;;7.10;60.80;;;;;;5048853;28;20076;-72
2022/03/06 05:47:35;;;;;;;24.02;15.45;;;7.10;61.00;;;;;;5046386;28;20038;-72
2022/03/06 05:50:02;;;;;;;24.90;15.68;;;7.10;60.70;;;;;;5050783;28;20071;-72
2022/03/06 05:52:28;;;;;;;28.92;15.52;;;7.00;61.40;;;;;;5049151;28;20025;-72
2022/03/06 05:54:53;;;;;;;23.60;15.13;;;6.90;61.40;;;;;;5043302;28;20369;-72
2022/03/06 05:57:19;;;;;;;24.73;15.88;;;6.90;61.40;;;;;;5047977;28;20070;-73
2022/03/06 05:59:45;;;;;;;23.58;15.60;;;6.90;61.40;;;;;;5048428;28;20390;-73
2022/03/06 06:02:10;;;;;;;25.55;15.20;;;7.00;60.90;;;;;;5051024;28;20036;-73
2022/03/06 06:04:36;;;;;;;25.08;14.57;;;7.10;61.10;;;;;;5051557;28;20084;-73
2022/03/06 06:07:02;;;;;;;24.30;14.93;;;7.00;61.30;;;;;;5047916;28;20032;-72
2022/03/06 06:09:28;;;;;;;25.58;15.00;;;6.90;61.30;;;;;;5054188;28;20029;-72
2022/03/06 06:11:53;;;;;;;21.10;14.50;;;6.80;62.30;;;;;;5047681;28;20031;-72
2022/03/06 06:14:19;;;;;;;23.27;15.30;;;7.00;61.40;;;;;;5049416;28;20120;-72
2022/03/06 06:16:45;;;;;;;24.48;15.23;;;7.00;61.80;;;;;;5052427;28;20426;-72
2022/03/06 06:19:11;;;;;;;23.30;14.77;;;6.90;61.20;;;;;;5047721;28;20112;-72
2022/03/06 06:21:36;;;;;;;22.67;16.58;;;6.90;62.30;;;;;;5047207;28;20028;-72
2022/03/06 06:24:02;;;;;;;28.13;17.65;;;6.90;62.30;;;;;;5047130;28;20086;-72
2022/03/06 06:26:28;;;;;;;31.95;20.75;;;6.80;62.50;;;;;;5048115;28;20022;-72
2022/03/06 06:28:56;;;;;;;27.73;18.67;;;6.80;62.60;;;;;;5051933;28;20047;-72
2022/03/06 06:31:25;;;;;;;30.50;18.35;;;6.80;62.40;;;;;;5048752;28;20028;-73
2022/03/06 06:33:51;;;;;;;30.42;17.40;;;6.70;63.20;;;;;;5045011;28;20511;-73
2022/03/06 06:36:18;;;;;;;29.33;17.73;;;6.60;62.90;;;;;;5047325;28;20025;-73
2022/03/06 06:38:44;;;;;;;27.92;16.92;;;6.70;63.10;;;;;;5045436;28;20030;-73
2022/03/06 06:41:10;;;;;;;30.08;18.23;;;6.70;63.20;;;;;;5048923;28;20550;-73
2022/03/06 06:43:36;;;;;;;27.95;18.67;;;6.80;63.10;;;;;;5049200;28;20133;-73
2022/03/06 06:46:01;;;;;;;26.25;16.95;;;6.80;63.40;;;;;;5051642;28;20029;-74
2022/03/06 06:48:27;;;;;;;26.20;17.08;;;6.90;63.70;;;;;;5047998;28;20037;-74
2022/03/06 06:50:53;;;;;;;28.42;18.10;;;6.90;62.70;;;;;;5045578;28;20033;-74
2022/03/06 06:53:18;;;;;;;25.38;16.88;;;6.80;63.40;;;;;;5048171;28;20037;-74
2022/03/06 06:55:44;;;;;;;28.70;16.67;;;7.00;62.50;;;;;;5048670;28;20036;-74
2022/03/06 06:58:11;;;;;;;25.08;16.45;;;6.90;62.40;;;;;;5045327;28;20782;-74
2022/03/06 07:00:36;;;;;;;30.13;17.05;;;7.20;61.70;;;;;;5045045;28;20116;-74
2022/03/06 07:03:02;;;;;;;25.88;17.10;;;7.20;62.20;;;;;;5045364;28;20122;-74
2022/03/06 07:05:28;;;;;;;26.23;16.05;;;7.00;62.00;;;;;;5047356;28;20045;-73
2022/03/06 07:07:54;;;;;;;25.55;15.63;;;7.10;62.70;;;;;;5050338;28;20108;-72
2022/03/06 07:10:21;;;;;;;22.42;15.45;;;7.10;61.80;;;;;;5046524;28;20114;-72
2022/03/06 07:12:51;;;;;;;23.65;15.38;;;7.20;62.50;;;;;;5043711;28;20032;-72
2022/03/06 07:15:16;;;;;;;24.63;16.00;;;7.20;61.50;;;;;;5048657;28;20440;-72
2022/03/06 07:17:42;;;;;;;25.40;15.43;;;7.20;62.00;;;;;;5049556;28;20025;-72
2022/03/06 07:20:10;;;;;;;25.13;15.05;;;7.40;61.70;;;;;;5045223;28;20074;-73
2022/03/06 07:22:36;;;;;;;26.38;15.85;;;7.20;62.00;;;;;;5043441;28;20033;-73
2022/03/06 07:25:02;;;;;;;23.20;15.15;;;7.30;62.40;;;;;;5044117;28;20034;-73
2022/03/06 07:27:28;;;;;;;26.55;15.57;;;7.50;61.30;;;;;;5046787;28;20052;-74
2022/03/06 07:29:54;;;;;;;23.17;15.27;;;7.60;60.50;;;;;;5049344;28;20060;-73
2022/03/06 07:32:20;;;;;;;25.77;16.23;;;7.60;62.00;;;;;;5047698;28;20025;-70
2022/03/06 07:34:45;;;;;;;23.52;14.93;;;7.70;61.40;;;;;;5044577;28;20036;-73
2022/03/06 07:37:11;;;;;;;25.60;14.48;;;7.70;62.70;;;;;;5045687;28;20021;-72
2022/03/06 07:39:37;;;;;;;23.83;15.77;;;7.70;61.80;;;;;;5044711;28;20037;-75
2022/03/06 07:42:03;;;;;;;26.20;14.52;;;7.80;61.50;;;;;;5050825;28;20523;-75
2022/03/06 07:44:29;;;;;;;23.90;14.55;;;7.90;60.80;;;;;;5048623;28;20511;-75
2022/03/06 07:46:54;;;;;;;21.88;13.45;;;8.00;60.60;;;;;;5045352;28;20029;-75
2022/03/06 07:49:20;;;;;;;23.40;14.80;;;8.10;60.10;;;;;;5047125;28;20525;-74
2022/03/06 07:51:46;;;;;;;22.90;14.07;;;8.20;60.20;;;;;;5043501;28;20108;-74
2022/03/06 07:54:14;;;;;;;24.20;14.82;;;8.30;60.00;;;;;;5043305;28;20318;-74
2022/03/06 07:56:44;;;;;;;23.83;14.45;;;8.30;59.80;;;;;;5045222;28;20025;-74
2022/03/06 07:59:10;;;;;;;22.27;14.10;;;8.40;60.00;;;;;;5048861;28;20030;-74
2022/03/06 08:01:36;;;;;;;24.20;14.15;;;8.60;60.60;;;;;;5047783;28;20043;-74
2022/03/06 08:04:01;;;;;;;22.60;13.85;;;8.60;60.00;;;;;;5043798;28;20037;-74
2022/03/06 08:06:27;;;;;;;21.70;13.18;;;8.70;59.30;;;;;;5043450;28;20021;-74
2022/03/06 08:08:53;;;;;;;25.08;14.63;;;8.90;58.70;;;;;;5051355;28;20037;-73
2022/03/06 08:11:19;;;;;;;21.17;13.32;;;9.00;59.40;;;;;;5048256;28;20032;-73
2022/03/06 08:13:44;;;;;;;21.13;13.57;;;9.10;59.20;;;;;;5047978;28;20404;-71
2022/03/06 08:16:10;;;;;;;21.42;14.60;;;9.20;58.40;;;;;;5044330;28;20048;-69
2022/03/06 08:18:36;;;;;;;23.45;14.82;;;9.40;58.80;;;;;;5043319;28;20025;-66
2022/03/06 08:21:02;;;;;;;23.00;13.75;;;9.70;57.80;;;;;;5044183;28;20064;-67
2022/03/06 08:23:28;;;;;;;21.60;14.30;;;9.90;58.50;;;;;;5045371;28;20065;-67
2022/03/06 08:25:54;;;;;;;20.67;13.70;;;10.10;58.30;;;;;;5048781;28;20056;-67
2022/03/06 08:28:20;;;;;;;22.30;13.50;;;10.30;57.40;;;;;;5046171;28;20104;-66
2022/03/06 08:30:45;;;;;;;20.88;14.02;;;10.40;56.00;;;;;;5042827;28;20032;-67
2022/03/06 08:33:12;;;;;;;22.75;14.50;;;10.70;56.40;;;;;;5045254;28;20029;-67
2022/03/06 08:35:38;;;;;;;20.38;13.57;;;11.00;55.60;;;;;;5047646;28;20021;-66
2022/03/06 08:38:03;;;;;;;21.75;13.43;;;11.30;55.10;;;;;;5050167;28;20029;-67
2022/03/06 08:40:31;;;;;;;23.17;15.05;;;11.60;53.60;;;;;;5050603;28;20043;-67
2022/03/06 08:42:57;;;;;;;22.17;14.15;;;11.80;53.30;;;;;;5046891;28;20199;-67
2022/03/06 08:45:23;;;;;;;20.77;14.15;;;12.40;50.90;;;;;;5049384;28;20112;-68
2022/03/06 08:47:49;;;;;;;20.73;13.77;;;12.90;48.70;;;;;;5049664;28;20022;-67
2022/03/06 08:50:15;;;;;;;19.52;13.82;;;13.30;46.90;;;;;;5059835;28;20021;-67
2022/03/06 08:52:41;;;;;;;20.27;14.48;;;13.50;46.40;;;;;;5050804;28;20032;-67
2022/03/06 08:55:09;;;;;;;23.63;15.85;;;13.60;44.90;;;;;;5047863;28;20020;-66
2022/03/06 08:57:35;;;;;;;19.50;13.77;;;14.20;44.40;;;;;;5047614;28;20428;-67
2022/03/06 09:00:01;;;;;;;18.65;13.75;;;14.50;43.70;;;;;;5048840;28;20025;-69
2022/03/06 09:02:26;;;;;;;21.05;13.80;;;14.70;43.00;;;;;;5056265;28;20051;-68
2022/03/06 09:04:52;;;;;;;19.33;13.73;;;14.90;43.20;;;;;;5053325;28;20040;-66
2022/03/06 09:07:18;;;;;;;18.13;13.65;;;15.20;42.30;;;;;;5044287;28;20028;-69
2022/03/06 09:09:43;;;;;;;18.75;13.82;;;15.30;42.20;;;;;;5045018;28;20017;-70
2022/03/06 09:12:09;;;;;;;20.25;13.60;;;15.30;40.90;;;;;;5044916;28;20494;-69
2022/03/06 09:14:35;;;;;;;18.83;13.85;;;15.50;41.10;;;;;;5052110;28;20129;-70
2022/03/06 09:17:01;;;;;;;19.85;13.45;;;15.70;42.20;;;;;;5057155;28;20029;-69
2022/03/06 09:19:27;;;;;;;18.30;13.68;;;15.90;40.50;;;;;;5051331;28;20032;-69
2022/03/06 09:21:53;;;;;;;18.70;13.82;;;16.00;40.40;;;;;;5047729;28;20397;-69
2022/03/06 09:24:19;;;;;;;17.52;13.13;;;16.20;39.90;;;;;;5053619;28;20548;-68
2022/03/06 09:26:47;;;;;;;18.70;13.55;;;16.40;39.10;;;;;;5052453;28;20037;-67
2022/03/06 09:29:13;;;;;;;17.63;14.10;;;16.40;38.60;;;;;;5048521;28;20043;-68
2022/03/06 09:31:39;;;;;;;19.55;14.50;;;16.50;38.70;;;;;;5055004;28;20036;-67
2022/03/06 09:34:06;;;;;;;18.17;13.80;;;16.40;38.20;;;;;;5054946;28;20130;-67
2022/03/06 09:36:33;;;;;;;17.58;14.00;;;16.50;38.50;;;;;;5064746;28;20025;-67
2022/03/06 09:38:58;;;;;;;18.67;13.32;;;16.10;38.30;;;;;;5053388;28;20037;-67
2022/03/06 09:41:27;;;;;;;19.88;13.35;;;16.50;39.00;;;;;;5053772;28;20033;-68
2022/03/06 09:43:56;;;;;;;18.77;14.13;;;16.60;39.10;;;;;;5054510;28;20039;-67
2022/03/06 09:46:23;;;;;;;17.35;13.50;;;16.80;38.60;;;;;;5054644;28;20790;-67
2022/03/06 09:48:50;;;;;;;18.33;13.88;;;17.30;37.90;;;;;;5052678;28;20079;-67
2022/03/06 09:51:16;;;;;;;20.65;14.20;;;17.40;37.60;;;;;;5046437;28;20025;-67
2022/03/06 09:53:41;;;;;;;17.60;13.70;;;17.30;38.00;;;;;;5053784;28;20035;-67
2022/03/06 09:56:07;;;;;;;19.75;13.93;;;17.40;38.20;;;;;;5042071;28;20060;-67
2022/03/06 09:58:33;;;;;;;19.75;14.45;;;17.60;37.90;;;;;;5047167;28;20377;-67
2022/03/06 10:00:59;;;;;;;20.25;14.57;;;17.70;37.60;;;;;;5047848;28;20037;-67
2022/03/06 10:03:25;;;;;;;17.67;13.45;;;17.60;37.40;;;;;;5046337;28;20033;-67
2022/03/06 10:05:52;;;;;;;17.45;13.65;;;17.60;37.70;;;;;;5045606;28;20090;-68
2022/03/06 10:08:28;;;;;;;17.15;13.27;;;17.70;36.60;;;;;;5046806;28;20029;-68
2022/03/06 10:11:07;;;;;;;18.95;13.93;;;17.70;36.80;;;;;;5042228;28;20440;-67
2022/03/06 10:13:39;;;;;;;18.63;13.90;;;17.70;37.40;;;;;;5040040;28;20063;-67
2022/03/06 10:16:14;;;;;;;21.00;14.15;;;17.90;37.90;;;;;;5047413;28;20420;-67
2022/03/06 10:18:41;;;;;;;17.13;13.68;;;18.00;36.30;;;;;;5049391;28;20029;-67
2022/03/06 10:21:29;;;;;;;17.92;13.93;;;17.50;36.30;;;;;;5047242;28;20033;-68
2022/03/06 10:24:08;;;;;;;18.05;13.95;;;17.20;35.70;;;;;;5038581;28;20052;-67
2022/03/06 10:26:35;;;;;;;18.42;14.25;;;16.50;37.00;;;;;;5044869;28;20542;-67
2022/03/06 10:29:09;;;;;;;20.05;14.63;;;16.30;36.70;;;;;;5047707;28;20037;-71
2022/03/06 10:31:36;;;;;;;19.77;13.77;;;15.90;37.80;;;;;;5046031;28;20134;-68
2022/03/06 10:34:06;;;;;;;20.00;14.23;;;15.90;38.70;;;;;;5047077;28;20032;-70
2022/03/06 10:36:37;;;;;;;21.17;15.15;;;15.80;38.70;;;;;;5049841;28;20644;-68
2022/03/06 10:39:09;;;;;;;20.30;14.82;;;15.70;38.00;;;;;;5046765;28;20175;-68
2022/03/06 10:41:38;;;;;;;21.05;14.27;;;15.80;39.50;;;;;;5046241;28;20029;-68
2022/03/06 10:44:06;;;;;;;23.70;14.45;;;15.60;39.50;;;;;;5045820;28;20052;-67
2022/03/06 10:46:34;;;;;;;22.92;15.90;;;15.50;39.30;;;;;;5041627;28;20028;-67
2022/03/06 10:49:14;;;;;;;21.88;15.60;;;15.40;39.60;;;;;;5043565;28;20033;-67
2022/03/06 10:51:46;;;;;;;22.60;18.95;;;15.20;39.60;;;;;;5046148;28;20021;-66
2022/03/06 10:54:14;;;;;;;23.15;15.93;;;15.30;40.20;;;;;;5047660;28;20161;-67
2022/03/06 10:56:43;;;;;;;19.85;14.55;;;15.40;40.90;;;;;;5041459;28;20037;-68
2022/03/06 10:59:10;;;;;;;23.00;15.00;;;15.20;39.90;;;;;;5044873;28;20037;-68
2022/03/06 11:01:38;;;;;;;21.38;14.38;;;15.10;39.40;;;;;;5043739;28;20036;-69
2022/03/06 11:04:06;;;;;;;24.50;14.85;;;15.30;40.60;;;;;;5044817;28;20047;-68
2022/03/06 11:06:42;;;;;;;23.17;15.05;;;15.60;40.20;;;;;;5048535;28;20051;-68
2022/03/06 11:09:13;;;;;;;28.52;20.33;;;15.60;40.20;;;;;;5047224;28;20059;-69
2022/03/06 11:11:41;;;;;;;21.85;14.98;;;15.50;39.60;;;;;;5046068;28;20029;-70
2022/03/06 11:14:08;;;;;;;19.65;13.93;;;15.60;40.60;;;;;;5044917;28;20037;-69
2022/03/06 11:16:42;;;;;;;20.02;14.55;;;15.50;40.00;;;;;;5045942;28;20633;-69
2022/03/06 11:19:09;;;;;;;21.23;15.65;;;15.50;39.50;;;;;;5045951;28;20025;-70
2022/03/06 11:21:38;;;;;;;22.63;14.55;;;15.40;39.80;;;;;;5048190;28;20041;-68
2022/03/06 11:24:26;;;;;;;19.88;14.68;;;15.40;40.10;;;;;;5033071;28;20037;-67
2022/03/06 11:27:12;;;;;;;20.63;14.75;;;15.50;40.60;;;;;;5056641;28;20037;-72
2022/03/06 11:30:03;;;;;;;21.85;14.38;;;15.60;40.00;;;;;;5041591;28;20417;-71
2022/03/06 11:32:31;;;;;;;22.05;14.73;;;15.60;38.60;;;;;;5041356;28;20075;-70
2022/03/06 11:35:19;;;;;;;21.30;14.55;;;15.50;39.30;;;;;;5044709;28;20024;-69
2022/03/06 11:37:50;;;;;;;21.25;14.35;;;15.60;39.20;;;;;;5036814;28;20407;-69
2022/03/06 11:40:49;;;;;;;20.80;13.95;;;15.70;39.10;;;;;;5040956;28;20669;-70
2022/03/06 11:43:32;;;;;;;21.33;15.02;;;15.70;39.70;;;;;;5047543;28;20029;-69
2022/03/06 11:46:16;;;;;;;20.63;13.98;;;15.70;37.70;;;;;;5049754;28;20523;-67
2022/03/06 11:48:44;;;;;;;20.88;14.55;;;15.70;39.30;;;;;;5050266;28;20044;-67
2022/03/06 11:51:21;;;;;;;17.65;13.23;;;15.80;38.50;;;;;;5046997;28;20444;-66
2022/03/06 11:54:02;;;;;;;21.08;15.10;;;15.80;37.40;;;;;;5043588;28;20089;-67
2022/03/06 11:56:39;;;;;;;20.02;14.57;;;15.80;39.70;;;;;;5046977;28;20040;-67
2022/03/06 11:59:09;;;;;;;21.27;14.63;;;15.90;38.80;;;;;;5046316;28;20488;-68
2022/03/06 12:01:41;;;;;;;21.83;14.30;;;15.90;38.80;;;;;;5045698;28;20014;-70
2022/03/06 12:04:07;;;;;;;22.50;14.43;;;15.80;38.70;;;;;;5047526;28;20049;-67
2022/03/06 12:06:41;;;;;;;19.92;14.25;;;15.90;39.70;;;;;;5051471;28;20033;-67
2022/03/06 12:09:13;;;;;;;22.20;14.18;;;16.00;39.20;;;;;;5046192;28;20105;-68
2022/03/06 12:11:40;;;;;;;19.95;14.63;;;16.10;39.40;;;;;;5045769;28;20033;-67
2022/03/06 12:14:21;;;;;;;20.20;14.65;;;16.20;38.60;;;;;;5050399;28;20064;-67
2022/03/06 12:17:02;;;;;;;21.17;14.85;;;16.40;38.60;;;;;;5048208;28;20024;-67
2022/03/06 12:19:35;;;;;;;20.35;15.35;;;16.50;38.60;;;;;;5064122;28;20405;-67
2022/03/06 12:22:17;;;;;;;21.17;15.60;;;16.70;37.10;;;;;;5049754;28;20128;-67
2022/03/06 12:24:45;;;;;;;21.17;14.32;;;17.10;37.00;;;;;;5051847;28;20487;-69
2022/03/06 12:27:25;;;;;;;20.75;14.55;;;17.40;37.00;;;;;;5049550;28;20029;-66
2022/03/06 12:29:58;;;;;;;23.40;15.60;;;17.80;37.40;;;;;;5047820;28;20056;-67
2022/03/06 12:32:31;;;;;;;21.77;15.18;;;18.80;35.80;;;;;;5046663;28;20082;-68
2022/03/06 12:35:00;;;;;;;19.70;15.03;;;20.60;33.50;;;;;;5048451;28;20032;-67
2022/03/06 12:37:33;;;;;;;18.02;13.88;;;21.60;32.60;;;;;;5047639;28;20022;-67